sensor_id;sensor_type;location;lat;lon;timestamp;temperature;humidity
4314;DHT22;2170;48.794;9.182;2024-02-23T02:53:06;6.40;99.90
4314;DHT22;2170;48.794;9.182;2024-02-23T02:57:40;6.70;99.90
4314;DHT22;2170;48.794;9.182;2024-02-23T03:49:53;6.10;99.90
4314;DHT22;2170;48.794;9.182;2024-02-23T03:56:24;6.50;99.90
4314;DHT22;2170;48.794;9.182;2024-02-23T04:05:55;6.40;99.90
4314;DHT22;2170;48.794;9.182;2024-02-23T04:13:50;6.60;99.90
4314;DHT22;2170;48.794;9.182;2024-02-23T04:41:50;5.80;99.90
4314;DHT22;2170;48.794;9.182;2024-02-23T04:48:21;5.80;99.90
4314;DHT22;2170;48.794;9.182;2024-02-23T04:55:24;6.10;99.90
4314;DHT22;2170;48.794;9.182;2024-02-23T05:01:18;6.10;99.90
4314;DHT22;2170;48.794;9.182;2024-02-23T05:04:27;6.10;99.90
4314;DHT22;2170;48.794;9.182;2024-02-23T05:14:52;6.00;99.90
4314;DHT22;2170;48.794;9.182;2024-02-23T05:25:06;6.00;99.90
4314;DHT22;2170;48.794;9.182;2024-02-23T05:28:37;5.90;99.90
4314;DHT22;2170;48.794;9.182;2024-02-23T05:31:52;5.60;99.90
4314;DHT22;2170;48.794;9.182;2024-02-23T05:34:36;5.90;99.90
4314;DHT22;2170;48.794;9.182;2024-02-23T05:41:03;5.90;99.90
4314;DHT22;2170;48.794;9.182;2024-02-23T05:47:41;5.90;99.90
4314;DHT22;2170;48.794;9.182;2024-02-23T05:50:17;5.90;99.90
4314;DHT22;2170;48.794;9.182;2024-02-23T05:52:58;5.90;99.90
4314;DHT22;2170;48.794;9.182;2024-02-23T05:58:41;5.80;99.90
4314;DHT22;2170;48.794;9.182;2024-02-23T06:01:47;5.80;99.90
4314;DHT22;2170;48.794;9.182;2024-02-23T06:22:31;5.70;99.90
4314;DHT22;2170;48.794;9.182;2024-02-23T06:25:17;5.70;99.90
4314;DHT22;2170;48.794;9.182;2024-02-23T06:28:18;5.40;99.90
4314;DHT22;2170;48.794;9.182;2024-02-23T06:31:35;5.70;99.90
4314;DHT22;2170;48.794;9.182;2024-02-23T06:34:41;5.80;99.90
4314;DHT22;2170;48.794;9.182;2024-02-23T06:40:46;5.80;99.90
4314;DHT22;2170;48.794;9.182;2024-02-23T06:43:56;5.80;99.90
4314;DHT22;2170;48.794;9.182;2024-02-23T06:50:08;5.80;99.90
4314;DHT22;2170;48.794;9.182;2024-02-23T06:53:31;5.90;99.90
4314;DHT22;2170;48.794;9.182;2024-02-23T06:56:38;5.80;99.90
4314;DHT22;2170;48.794;9.182;2024-02-23T07:03:15;6.00;99.90
4314;DHT22;2170;48.794;9.182;2024-02-23T07:05:55;5.80;99.90
4314;DHT22;2170;48.794;9.182;2024-02-23T07:08:45;5.80;99.90
4314;DHT22;2170;48.794;9.182;2024-02-23T07:11:34;5.70;99.90
4314;DHT22;2170;48.794;9.182;2024-02-23T07:14:32;5.80;99.90
4314;DHT22;2170;48.794;9.182;2024-02-23T07:17:33;5.80;99.90
4314;DHT22;2170;48.794;9.182;2024-02-23T07:20:24;5.40;99.90
4314;DHT22;2170;48.794;9.182;2024-02-23T07:26:03;5.80;99.90
4314;DHT22;2170;48.794;9.182;2024-02-23T07:28:52;5.80;99.90
4314;DHT22;2170;48.794;9.182;2024-02-23T07:31:28;6.10;99.90
4314;DHT22;2170;48.794;9.182;2024-02-23T07:34:11;6.00;99.90
4314;DHT22;2170;48.794;9.182;2024-02-23T07:36:54;5.90;99.90
4314;DHT22;2170;48.794;9.182;2024-02-23T07:39:56;5.60;99.90
4314;DHT22;2170;48.794;9.182;2024-02-23T07:42:55;5.90;99.90
4314;DHT22;2170;48.794;9.182;2024-02-23T07:45:58;5.90;99.90
4314;DHT22;2170;48.794;9.182;2024-02-23T07:48:43;5.90;99.90
4314;DHT22;2170;48.794;9.182;2024-02-23T07:51:17;6.00;99.90
4314;DHT22;2170;48.794;9.182;2024-02-23T07:53:58;6.00;99.90
4314;DHT22;2170;48.794;9.182;2024-02-23T07:56:53;6.00;99.90
4314;DHT22;2170;48.794;9.182;2024-02-23T07:59:30;6.00;99.90
4314;DHT22;2170;48.794;9.182;2024-02-23T08:02:13;6.00;99.90
4314;DHT22;2170;48.794;9.182;2024-02-23T08:04:58;5.80;99.90
4314;DHT22;2170;48.794;9.182;2024-02-23T08:07:31;6.10;99.90
4314;DHT22;2170;48.794;9.182;2024-02-23T08:10:09;6.10;99.90
4314;DHT22;2170;48.794;9.182;2024-02-23T08:13:04;6.10;99.90
4314;DHT22;2170;48.794;9.182;2024-02-23T08:15:44;6.10;99.90
4314;DHT22;2170;48.794;9.182;2024-02-23T08:21:51;6.00;99.90
4314;DHT22;2170;48.794;9.182;2024-02-23T08:25:11;6.10;99.90
4314;DHT22;2170;48.794;9.182;2024-02-23T08:27:42;5.80;99.90
4314;DHT22;2170;48.794;9.182;2024-02-23T08:30:58;5.90;99.90
4314;DHT22;2170;48.794;9.182;2024-02-23T08:33:33;6.30;99.90
4314;DHT22;2170;48.794;9.182;2024-02-23T08:39:34;6.30;99.90
4314;DHT22;2170;48.794;9.182;2024-02-23T08:42:13;6.30;99.90
4314;DHT22;2170;48.794;9.182;2024-02-23T08:44:56;6.30;99.90
4314;DHT22;2170;48.794;9.182;2024-02-23T08:47:43;6.30;99.90
4314;DHT22;2170;48.794;9.182;2024-02-23T08:50:28;6.60;99.90
4314;DHT22;2170;48.794;9.182;2024-02-23T08:53:09;6.40;99.90
4314;DHT22;2170;48.794;9.182;2024-02-23T08:56:02;6.50;99.90
4314;DHT22;2170;48.794;9.182;2024-02-23T08:58:37;6.20;99.90
4314;DHT22;2170;48.794;9.182;2024-02-23T09:01:12;6.50;99.90
4314;DHT22;2170;48.794;9.182;2024-02-23T09:03:52;6.50;99.90
4314;DHT22;2170;48.794;9.182;2024-02-23T09:06:26;6.60;99.90
4314;DHT22;2170;48.794;9.182;2024-02-23T09:08:57;6.60;99.90
4314;DHT22;2170;48.794;9.182;2024-02-23T09:11:42;6.80;99.90
4314;DHT22;2170;48.794;9.182;2024-02-23T09:14:20;6.60;99.90
4314;DHT22;2170;48.794;9.182;2024-02-23T09:17:18;6.60;99.90
4314;DHT22;2170;48.794;9.182;2024-02-23T09:19:54;6.60;99.90
4314;DHT22;2170;48.794;9.182;2024-02-23T09:22:31;6.70;99.90
4314;DHT22;2170;48.794;9.182;2024-02-23T09:25:08;6.70;99.90
4314;DHT22;2170;48.794;9.182;2024-02-23T09:27:47;6.70;99.90
4314;DHT22;2170;48.794;9.182;2024-02-23T09:30:15;7.00;99.90
4314;DHT22;2170;48.794;9.182;2024-02-23T09:32:53;6.90;99.90
4314;DHT22;2170;48.794;9.182;2024-02-23T09:35:29;6.60;99.90
4314;DHT22;2170;48.794;9.182;2024-02-23T09:38:00;6.60;99.90
4314;DHT22;2170;48.794;9.182;2024-02-23T09:40:31;6.60;99.90
4314;DHT22;2170;48.794;9.182;2024-02-23T09:43:17;6.70;99.90
4314;DHT22;2170;48.794;9.182;2024-02-23T09:45:54;6.90;99.90
4314;DHT22;2170;48.794;9.182;2024-02-23T09:48:27;7.00;99.90
4314;DHT22;2170;48.794;9.182;2024-02-23T09:50:59;7.10;99.90
4314;DHT22;2170;48.794;9.182;2024-02-23T09:53:30;7.20;99.90
4314;DHT22;2170;48.794;9.182;2024-02-23T09:56:01;7.40;99.90
4314;DHT22;2170;48.794;9.182;2024-02-23T09:58:31;7.60;99.90
4314;DHT22;2170;48.794;9.182;2024-02-23T10:01:02;7.80;99.90
4314;DHT22;2170;48.794;9.182;2024-02-23T10:03:50;8.00;99.90
4314;DHT22;2170;48.794;9.182;2024-02-23T10:06:35;8.30;99.90
4314;DHT22;2170;48.794;9.182;2024-02-23T10:09:06;8.40;99.90
4314;DHT22;2170;48.794;9.182;2024-02-23T10:11:35;8.40;99.90
4314;DHT22;2170;48.794;9.182;2024-02-23T10:14:07;8.30;99.90
4314;DHT22;2170;48.794;9.182;2024-02-23T10:16:39;8.50;99.90
4314;DHT22;2170;48.794;9.182;2024-02-23T10:19:07;8.60;99.90
4314;DHT22;2170;48.794;9.182;2024-02-23T10:21:37;8.40;99.90
4314;DHT22;2170;48.794;9.182;2024-02-23T10:24:10;8.40;99.90
4314;DHT22;2170;48.794;9.182;2024-02-23T10:26:40;8.40;99.90
4314;DHT22;2170;48.794;9.182;2024-02-23T10:29:12;8.80;99.90
4314;DHT22;2170;48.794;9.182;2024-02-23T10:31:41;8.60;99.90
4314;DHT22;2170;48.794;9.182;2024-02-23T10:34:14;8.70;99.90
4314;DHT22;2170;48.794;9.182;2024-02-23T10:36:49;8.50;99.90
4314;DHT22;2170;48.794;9.182;2024-02-23T10:39:21;8.50;99.90
4314;DHT22;2170;48.794;9.182;2024-02-23T10:42:00;8.70;99.90
4314;DHT22;2170;48.794;9.182;2024-02-23T10:44:39;8.40;99.90
4314;DHT22;2170;48.794;9.182;2024-02-23T10:47:18;8.60;99.90
4314;DHT22;2170;48.794;9.182;2024-02-23T10:52:47;9.00;99.90
4314;DHT22;2170;48.794;9.182;2024-02-23T10:55:56;9.20;99.90
4314;DHT22;2170;48.794;9.182;2024-02-23T10:58:38;9.00;99.90
4314;DHT22;2170;48.794;9.182;2024-02-23T11:01:15;9.10;99.90
4314;DHT22;2170;48.794;9.182;2024-02-23T11:03:52;9.10;99.90
4314;DHT22;2170;48.794;9.182;2024-02-23T11:06:35;8.90;99.90
4314;DHT22;2170;48.794;9.182;2024-02-23T11:09:20;9.30;99.90
4314;DHT22;2170;48.794;9.182;2024-02-23T11:12:04;9.40;99.90
4314;DHT22;2170;48.794;9.182;2024-02-23T11:14:35;9.40;99.90
4314;DHT22;2170;48.794;9.182;2024-02-23T11:17:26;9.40;99.90
4314;DHT22;2170;48.794;9.182;2024-02-23T11:20:02;9.50;99.90
4314;DHT22;2170;48.794;9.182;2024-02-23T11:22:40;9.50;99.90
4314;DHT22;2170;48.794;9.182;2024-02-23T11:25:20;9.50;99.90
4314;DHT22;2170;48.794;9.182;2024-02-23T11:28:01;9.60;99.90
4314;DHT22;2170;48.794;9.182;2024-02-23T11:30:52;9.40;99.90
4314;DHT22;2170;48.794;9.182;2024-02-23T11:33:40;9.30;99.90
4314;DHT22;2170;48.794;9.182;2024-02-23T11:36:08;9.50;99.90
4314;DHT22;2170;48.794;9.182;2024-02-23T11:39:02;9.50;99.90
4314;DHT22;2170;48.794;9.182;2024-02-23T11:42:09;9.40;99.90
4314;DHT22;2170;48.794;9.182;2024-02-23T11:44:45;9.40;99.90
4314;DHT22;2170;48.794;9.182;2024-02-23T11:47:13;9.60;99.90
4314;DHT22;2170;48.794;9.182;2024-02-23T11:49:58;9.40;99.90
4314;DHT22;2170;48.794;9.182;2024-02-23T11:52:29;9.60;99.90
4314;DHT22;2170;48.794;9.182;2024-02-23T11:55:08;9.60;99.90
4314;DHT22;2170;48.794;9.182;2024-02-23T11:57:44;9.40;99.90
4314;DHT22;2170;48.794;9.182;2024-02-23T12:00:16;9.60;99.90
4314;DHT22;2170;48.794;9.182;2024-02-23T12:02:53;9.50;99.90
4314;DHT22;2170;48.794;9.182;2024-02-23T12:05:25;9.60;99.90
4314;DHT22;2170;48.794;9.182;2024-02-23T12:07:57;9.40;99.90
4314;DHT22;2170;48.794;9.182;2024-02-23T12:10:30;9.50;99.90
4314;DHT22;2170;48.794;9.182;2024-02-23T12:13:27;9.30;99.90
4314;DHT22;2170;48.794;9.182;2024-02-23T12:16:06;9.30;99.90
4314;DHT22;2170;48.794;9.182;2024-02-23T12:18:40;9.40;99.90
4314;DHT22;2170;48.794;9.182;2024-02-23T12:21:14;9.40;99.90
4314;DHT22;2170;48.794;9.182;2024-02-23T12:23:45;9.50;99.90
4314;DHT22;2170;48.794;9.182;2024-02-23T12:26:20;9.40;99.90
4314;DHT22;2170;48.794;9.182;2024-02-23T12:29:03;9.70;99.90
4314;DHT22;2170;48.794;9.182;2024-02-23T12:31:41;9.80;99.90
4314;DHT22;2170;48.794;9.182;2024-02-23T12:34:19;9.50;99.90
4314;DHT22;2170;48.794;9.182;2024-02-23T12:37:09;9.60;99.90
4314;DHT22;2170;48.794;9.182;2024-02-23T12:39:53;9.60;99.90
4314;DHT22;2170;48.794;9.182;2024-02-23T12:42:25;9.60;99.90
4314;DHT22;2170;48.794;9.182;2024-02-23T12:45:11;9.50;99.90
4314;DHT22;2170;48.794;9.182;2024-02-23T12:47:49;9.50;99.90
4314;DHT22;2170;48.794;9.182;2024-02-23T12:50:32;9.50;99.90
4314;DHT22;2170;48.794;9.182;2024-02-23T12:53:33;9.50;99.90
4314;DHT22;2170;48.794;9.182;2024-02-23T12:56:14;9.40;99.90
4314;DHT22;2170;48.794;9.182;2024-02-23T12:58:56;9.40;99.90
4314;DHT22;2170;48.794;9.182;2024-02-23T13:01:45;9.10;99.90
4314;DHT22;2170;48.794;9.182;2024-02-23T13:04:22;9.40;99.90
4314;DHT22;2170;48.794;9.182;2024-02-23T13:07:36;9.50;99.90
4314;DHT22;2170;48.794;9.182;2024-02-23T13:09:50;9.40;99.90
4314;DHT22;2170;48.794;9.182;2024-02-23T13:12:23;9.40;99.90
4314;DHT22;2170;48.794;9.182;2024-02-23T13:15:01;9.40;99.90
4314;DHT22;2170;48.794;9.182;2024-02-23T13:17:36;9.50;99.90
4314;DHT22;2170;48.794;9.182;2024-02-23T13:20:09;9.60;99.90
4314;DHT22;2170;48.794;9.182;2024-02-23T13:22:46;9.60;99.90
4314;DHT22;2170;48.794;9.182;2024-02-23T13:25:29;9.60;99.90
4314;DHT22;2170;48.794;9.182;2024-02-23T13:28:05;9.70;99.90
4314;DHT22;2170;48.794;9.182;2024-02-23T13:30:41;9.80;99.90
4314;DHT22;2170;48.794;9.182;2024-02-23T13:33:15;9.80;99.90
4314;DHT22;2170;48.794;9.182;2024-02-23T13:35:48;9.80;99.90
4314;DHT22;2170;48.794;9.182;2024-02-23T13:38:23;10.00;99.90
4314;DHT22;2170;48.794;9.182;2024-02-23T13:41:00;9.70;99.90
4314;DHT22;2170;48.794;9.182;2024-02-23T13:43:31;9.70;99.90
4314;DHT22;2170;48.794;9.182;2024-02-23T13:46:09;9.70;99.90
4314;DHT22;2170;48.794;9.182;2024-02-23T13:48:43;9.70;99.90
4314;DHT22;2170;48.794;9.182;2024-02-23T13:51:11;9.90;99.90
4314;DHT22;2170;48.794;9.182;2024-02-23T13:53:40;9.70;99.90
4314;DHT22;2170;48.794;9.182;2024-02-23T13:56:12;9.70;99.90
4314;DHT22;2170;48.794;9.182;2024-02-23T13:58:44;9.70;99.90
4314;DHT22;2170;48.794;9.182;2024-02-23T14:01:17;9.70;99.90
4314;DHT22;2170;48.794;9.182;2024-02-23T14:03:57;9.70;99.90
4314;DHT22;2170;48.794;9.182;2024-02-23T14:06:33;9.60;99.90
4314;DHT22;2170;48.794;9.182;2024-02-23T14:09:03;9.70;99.90
4314;DHT22;2170;48.794;9.182;2024-02-23T14:11:38;9.70;99.90
4314;DHT22;2170;48.794;9.182;2024-02-23T14:14:15;9.80;99.90
4314;DHT22;2170;48.794;9.182;2024-02-23T14:16:44;9.90;99.90
4314;DHT22;2170;48.794;9.182;2024-02-23T14:19:18;10.00;99.90
4314;DHT22;2170;48.794;9.182;2024-02-23T14:21:49;9.70;99.90
4314;DHT22;2170;48.794;9.182;2024-02-23T14:24:17;10.20;99.90
4314;DHT22;2170;48.794;9.182;2024-02-23T14:26:47;9.90;99.90
4314;DHT22;2170;48.794;9.182;2024-02-23T14:29:17;10.20;99.90
4314;DHT22;2170;48.794;9.182;2024-02-23T14:31:51;10.10;99.90
4314;DHT22;2170;48.794;9.182;2024-02-23T14:34:33;10.20;99.90
4314;DHT22;2170;48.794;9.182;2024-02-23T14:37:11;10.10;99.90
4314;DHT22;2170;48.794;9.182;2024-02-23T14:39:45;10.10;99.90
4314;DHT22;2170;48.794;9.182;2024-02-23T14:42:16;10.00;99.90
4314;DHT22;2170;48.794;9.182;2024-02-23T14:44:51;9.90;99.90
4314;DHT22;2170;48.794;9.182;2024-02-23T14:47:20;10.00;99.90
4314;DHT22;2170;48.794;9.182;2024-02-23T14:49:53;10.00;99.90
4314;DHT22;2170;48.794;9.182;2024-02-23T14:52:29;10.20;99.90
4314;DHT22;2170;48.794;9.182;2024-02-23T14:54:59;10.20;99.90
4314;DHT22;2170;48.794;9.182;2024-02-23T14:57:33;10.20;99.90
4314;DHT22;2170;48.794;9.182;2024-02-23T15:00:00;10.20;99.90
4314;DHT22;2170;48.794;9.182;2024-02-23T15:02:32;10.10;99.90
4314;DHT22;2170;48.794;9.182;2024-02-23T15:05:05;10.00;99.90
4314;DHT22;2170;48.794;9.182;2024-02-23T15:07:47;9.90;99.90
4314;DHT22;2170;48.794;9.182;2024-02-23T15:10:21;9.70;99.90
4314;DHT22;2170;48.794;9.182;2024-02-23T15:13:24;9.70;99.90
4314;DHT22;2170;48.794;9.182;2024-02-23T15:16:23;9.70;99.90
4314;DHT22;2170;48.794;9.182;2024-02-23T15:19:32;9.60;99.90
4314;DHT22;2170;48.794;9.182;2024-02-23T15:22:30;9.60;99.90
4314;DHT22;2170;48.794;9.182;2024-02-23T15:29:12;9.50;99.90
4314;DHT22;2170;48.794;9.182;2024-02-23T15:32:10;9.50;99.90
4314;DHT22;2170;48.794;9.182;2024-02-23T15:38:29;9.30;99.90
4314;DHT22;2170;48.794;9.182;2024-02-23T15:41:11;9.50;99.90
4314;DHT22;2170;48.794;9.182;2024-02-23T15:43:41;9.50;99.90
4314;DHT22;2170;48.794;9.182;2024-02-23T15:46:16;9.70;99.90
4314;DHT22;2170;48.794;9.182;2024-02-23T15:48:46;9.50;99.90
4314;DHT22;2170;48.794;9.182;2024-02-23T15:51:20;9.50;99.90
4314;DHT22;2170;48.794;9.182;2024-02-23T15:54:01;9.40;99.90
4314;DHT22;2170;48.794;9.182;2024-02-23T15:56:33;9.40;99.90
4314;DHT22;2170;48.794;9.182;2024-02-23T15:59:04;9.30;99.90
4314;DHT22;2170;48.794;9.182;2024-02-23T16:01:44;9.60;99.90
4314;DHT22;2170;48.794;9.182;2024-02-23T16:04:17;9.40;99.90
4314;DHT22;2170;48.794;9.182;2024-02-23T16:06:46;9.40;99.90
4314;DHT22;2170;48.794;9.182;2024-02-23T16:09:29;9.30;99.90
4314;DHT22;2170;48.794;9.182;2024-02-23T16:13:37;9.30;99.90
4314;DHT22;2170;48.794;9.182;2024-02-23T16:17:34;9.30;99.90
4314;DHT22;2170;48.794;9.182;2024-02-23T16:18:40;9.40;99.90
4314;DHT22;2170;48.794;9.182;2024-02-23T16:21:47;8.80;99.90
4314;DHT22;2170;48.794;9.182;2024-02-23T16:30:58;8.60;99.90
4314;DHT22;2170;48.794;9.182;2024-02-23T16:43:29;8.90;99.90
4314;DHT22;2170;48.794;9.182;2024-02-23T16:46:16;8.90;99.90
4314;DHT22;2170;48.794;9.182;2024-02-23T16:48:46;9.00;99.90
4314;DHT22;2170;48.794;9.182;2024-02-23T16:51:31;8.90;99.90
4314;DHT22;2170;48.794;9.182;2024-02-23T16:54:06;9.10;99.90
4314;DHT22;2170;48.794;9.182;2024-02-23T16:56:56;8.90;99.90
4314;DHT22;2170;48.794;9.182;2024-02-23T17:02:40;8.80;99.90
4314;DHT22;2170;48.794;9.182;2024-02-23T17:05:22;8.80;99.90
4314;DHT22;2170;48.794;9.182;2024-02-23T17:08:15;8.90;99.90
4314;DHT22;2170;48.794;9.182;2024-02-23T17:11:14;8.70;99.90
4314;DHT22;2170;48.794;9.182;2024-02-23T17:17:22;8.70;99.90
4314;DHT22;2170;48.794;9.182;2024-02-23T17:19:57;8.60;99.90
4314;DHT22;2170;48.794;9.182;2024-02-23T17:23:07;8.60;99.90
4314;DHT22;2170;48.794;9.182;2024-02-23T17:25:49;8.60;99.90
4314;DHT22;2170;48.794;9.182;2024-02-23T17:28:42;8.50;99.90
4314;DHT22;2170;48.794;9.182;2024-02-23T17:31:36;8.50;99.90
4314;DHT22;2170;48.794;9.182;2024-02-23T17:34:58;8.50;99.90
4314;DHT22;2170;48.794;9.182;2024-02-23T17:38:11;8.50;99.90
4314;DHT22;2170;48.794;9.182;2024-02-23T17:42:26;8.70;99.90
4314;DHT22;2170;48.794;9.182;2024-02-23T17:44:28;8.60;99.90
4314;DHT22;2170;48.794;9.182;2024-02-23T17:47:42;8.40;99.90
4314;DHT22;2170;48.794;9.182;2024-02-23T17:50:28;8.30;99.90
4314;DHT22;2170;48.794;9.182;2024-02-23T17:53:27;8.30;99.90
4314;DHT22;2170;48.794;9.182;2024-02-23T17:55:58;8.20;99.90
4314;DHT22;2170;48.794;9.182;2024-02-23T17:58:32;7.90;99.90
4314;DHT22;2170;48.794;9.182;2024-02-23T18:01:18;8.10;99.90
4314;DHT22;2170;48.794;9.182;2024-02-23T18:06:23;8.10;99.90
4314;DHT22;2170;48.794;9.182;2024-02-23T18:07:40;8.10;99.90
4314;DHT22;2170;48.794;9.182;2024-02-23T18:10:44;8.10;99.90
4314;DHT22;2170;48.794;9.182;2024-02-23T18:13:38;8.00;99.90
4314;DHT22;2170;48.794;9.182;2024-02-23T18:16:23;8.00;99.90
4314;DHT22;2170;48.794;9.182;2024-02-23T18:19:07;7.90;99.90
4314;DHT22;2170;48.794;9.182;2024-02-23T18:21:38;7.90;99.90
4314;DHT22;2170;48.794;9.182;2024-02-23T18:24:40;7.90;99.90
4314;DHT22;2170;48.794;9.182;2024-02-23T18:27:28;7.90;99.90
4314;DHT22;2170;48.794;9.182;2024-02-23T18:30:04;7.80;99.90
4314;DHT22;2170;48.794;9.182;2024-02-23T18:32:57;7.80;99.90
4314;DHT22;2170;48.794;9.182;2024-02-23T18:35:33;7.70;99.90
4314;DHT22;2170;48.794;9.182;2024-02-23T18:41:02;7.70;99.90
4314;DHT22;2170;48.794;9.182;2024-02-23T18:43:38;7.60;99.90
4314;DHT22;2170;48.794;9.182;2024-02-23T18:46:06;7.60;99.90
4314;DHT22;2170;48.794;9.182;2024-02-23T18:48:39;7.60;99.90
4314;DHT22;2170;48.794;9.182;2024-02-23T18:51:09;7.50;99.90
4314;DHT22;2170;48.794;9.182;2024-02-23T18:53:40;7.50;99.90
4314;DHT22;2170;48.794;9.182;2024-02-23T18:56:09;7.40;99.90
4314;DHT22;2170;48.794;9.182;2024-02-23T18:58:38;7.40;99.90
4314;DHT22;2170;48.794;9.182;2024-02-23T19:01:17;7.40;99.90
4314;DHT22;2170;48.794;9.182;2024-02-23T19:03:53;7.30;99.90
4314;DHT22;2170;48.794;9.182;2024-02-23T19:06:34;7.30;99.90
4314;DHT22;2170;48.794;9.182;2024-02-23T19:09:11;7.30;99.90
4314;DHT22;2170;48.794;9.182;2024-02-23T19:14:54;7.20;99.90
4314;DHT22;2170;48.794;9.182;2024-02-23T19:17:33;7.20;99.90
4314;DHT22;2170;48.794;9.182;2024-02-23T19:20:11;7.20;99.90
4314;DHT22;2170;48.794;9.182;2024-02-23T19:22:43;7.10;99.90
4314;DHT22;2170;48.794;9.182;2024-02-23T19:25:28;7.10;99.90
4314;DHT22;2170;48.794;9.182;2024-02-23T19:28:06;7.10;99.90
4314;DHT22;2170;48.794;9.182;2024-02-23T19:31:02;7.00;99.90
4314;DHT22;2170;48.794;9.182;2024-02-23T19:33:51;7.00;99.90
4314;DHT22;2170;48.794;9.182;2024-02-23T19:36:30;7.00;99.90
4314;DHT22;2170;48.794;9.182;2024-02-23T19:39:03;7.00;99.90
4314;DHT22;2170;48.794;9.182;2024-02-23T19:41:42;6.60;99.90
4314;DHT22;2170;48.794;9.182;2024-02-23T19:44:17;6.90;99.90
4314;DHT22;2170;48.794;9.182;2024-02-23T19:47:08;6.80;99.90
4314;DHT22;2170;48.794;9.182;2024-02-23T19:51:37;6.80;99.90
4314;DHT22;2170;48.794;9.182;2024-02-23T19:53:32;6.80;99.90
4314;DHT22;2170;48.794;9.182;2024-02-23T19:56:18;6.80;99.90
4314;DHT22;2170;48.794;9.182;2024-02-23T20:00:43;6.80;99.90
4314;DHT22;2170;48.794;9.182;2024-02-23T20:02:47;6.70;99.90
4314;DHT22;2170;48.794;9.182;2024-02-23T20:05:49;6.70;99.90
4314;DHT22;2170;48.794;9.182;2024-02-23T20:11:51;6.60;99.90
4314;DHT22;2170;48.794;9.182;2024-02-23T20:14:38;6.60;99.90
4314;DHT22;2170;48.794;9.182;2024-02-23T20:17:34;6.60;99.90
4314;DHT22;2170;48.794;9.182;2024-02-23T20:20:43;6.60;99.90
4314;DHT22;2170;48.794;9.182;2024-02-23T20:26:34;6.50;99.90
4314;DHT22;2170;48.794;9.182;2024-02-23T20:29:58;6.40;99.90
4314;DHT22;2170;48.794;9.182;2024-02-23T20:32:57;6.40;99.90
4314;DHT22;2170;48.794;9.182;2024-02-23T20:35:35;6.40;99.90
4314;DHT22;2170;48.794;9.182;2024-02-23T20:38:13;6.40;99.90
4314;DHT22;2170;48.794;9.182;2024-02-23T20:41:22;6.10;99.90
4314;DHT22;2170;48.794;9.182;2024-02-23T20:44:44;6.40;99.90
4314;DHT22;2170;48.794;9.182;2024-02-23T20:47:40;6.30;99.90
4314;DHT22;2170;48.794;9.182;2024-02-23T20:50:21;6.30;99.90
4314;DHT22;2170;48.794;9.182;2024-02-23T20:53:03;6.30;99.90
4314;DHT22;2170;48.794;9.182;2024-02-23T20:55:39;6.20;99.90
4314;DHT22;2170;48.794;9.182;2024-02-23T21:04:43;6.20;99.90
4314;DHT22;2170;48.794;9.182;2024-02-23T21:07:34;6.40;99.90
4314;DHT22;2170;48.794;9.182;2024-02-23T21:11:20;6.10;99.90
4314;DHT22;2170;48.794;9.182;2024-02-23T21:13:25;6.20;99.90
4314;DHT22;2170;48.794;9.182;2024-02-23T21:16:01;5.90;99.90
4314;DHT22;2170;48.794;9.182;2024-02-23T21:19:05;6.10;99.90
4314;DHT22;2170;48.794;9.182;2024-02-23T21:24:44;5.70;99.90
4314;DHT22;2170;48.794;9.182;2024-02-23T21:27:25;6.00;99.90
4314;DHT22;2170;48.794;9.182;2024-02-23T21:30:14;6.00;99.90
4314;DHT22;2170;48.794;9.182;2024-02-23T21:33:12;5.90;99.90
4314;DHT22;2170;48.794;9.182;2024-02-23T21:36:09;5.90;99.90
4314;DHT22;2170;48.794;9.182;2024-02-23T21:38:57;5.90;99.90
4314;DHT22;2170;48.794;9.182;2024-02-23T21:42:18;5.90;99.90
4314;DHT22;2170;48.794;9.182;2024-02-23T21:45:05;5.80;99.90
4314;DHT22;2170;48.794;9.182;2024-02-23T21:51:26;5.80;99.90
4314;DHT22;2170;48.794;9.182;2024-02-23T21:54:22;6.00;99.90
4314;DHT22;2170;48.794;9.182;2024-02-23T21:56:57;5.70;99.90
4314;DHT22;2170;48.794;9.182;2024-02-23T21:59:33;5.70;99.90
4314;DHT22;2170;48.794;9.182;2024-02-23T22:02:04;5.60;99.90
4314;DHT22;2170;48.794;9.182;2024-02-23T22:04:40;5.70;99.90
4314;DHT22;2170;48.794;9.182;2024-02-23T22:07:12;5.60;99.90
4314;DHT22;2170;48.794;9.182;2024-02-23T22:09:47;5.60;99.90
4314;DHT22;2170;48.794;9.182;2024-02-23T22:12:19;5.50;99.90
4314;DHT22;2170;48.794;9.182;2024-02-23T22:15:01;5.50;99.90
4314;DHT22;2170;48.794;9.182;2024-02-23T22:17:33;5.50;99.90
4314;DHT22;2170;48.794;9.182;2024-02-23T22:20:02;5.40;99.90
4314;DHT22;2170;48.794;9.182;2024-02-23T22:22:33;5.40;99.90
4314;DHT22;2170;48.794;9.182;2024-02-23T22:25:08;5.40;99.90
4314;DHT22;2170;48.794;9.182;2024-02-23T22:27:41;5.30;99.90
4314;DHT22;2170;48.794;9.182;2024-02-23T22:30:12;5.00;99.90
4314;DHT22;2170;48.794;9.182;2024-02-23T22:32:41;5.30;99.90
4314;DHT22;2170;48.794;9.182;2024-02-23T22:35:12;5.20;99.90
4314;DHT22;2170;48.794;9.182;2024-02-23T22:37:41;5.20;99.90
4314;DHT22;2170;48.794;9.182;2024-02-23T22:40:13;5.50;99.90
4314;DHT22;2170;48.794;9.182;2024-02-23T22:42:46;4.80;99.90
4314;DHT22;2170;48.794;9.182;2024-02-23T22:45:25;5.20;99.90
4314;DHT22;2170;48.794;9.182;2024-02-23T22:48:03;5.10;99.90
4314;DHT22;2170;48.794;9.182;2024-02-23T22:50:48;5.10;99.90
4314;DHT22;2170;48.794;9.182;2024-02-23T22:53:25;5.00;99.90
4314;DHT22;2170;48.794;9.182;2024-02-23T22:56:04;4.60;99.90
4314;DHT22;2170;48.794;9.182;2024-02-23T22:58:36;4.80;99.90
4314;DHT22;2170;48.794;9.182;2024-02-23T23:01:26;4.80;99.90
4314;DHT22;2170;48.794;9.182;2024-02-23T23:04:13;4.80;99.90
4314;DHT22;2170;48.794;9.182;2024-02-23T23:07:13;4.60;99.90
4314;DHT22;2170;48.794;9.182;2024-02-23T23:10:28;4.80;99.90
4314;DHT22;2170;48.794;9.182;2024-02-23T23:13:15;4.40;99.90
4314;DHT22;2170;48.794;9.182;2024-02-23T23:15:48;4.70;99.90
4314;DHT22;2170;48.794;9.182;2024-02-23T23:18:17;4.60;99.90
4314;DHT22;2170;48.794;9.182;2024-02-23T23:20:50;4.60;99.90
4314;DHT22;2170;48.794;9.182;2024-02-23T23:23:30;4.60;99.90
4314;DHT22;2170;48.794;9.182;2024-02-23T23:26:01;4.60;99.90
4314;DHT22;2170;48.794;9.182;2024-02-23T23:28:32;4.60;99.90
4314;DHT22;2170;48.794;9.182;2024-02-23T23:31:09;4.20;99.90
4314;DHT22;2170;48.794;9.182;2024-02-23T23:33:44;4.60;99.90
4314;DHT22;2170;48.794;9.182;2024-02-23T23:36:23;4.60;99.90
4314;DHT22;2170;48.794;9.182;2024-02-23T23:39:00;4.50;99.90
4314;DHT22;2170;48.794;9.182;2024-02-23T23:41:37;4.60;99.90
4314;DHT22;2170;48.794;9.182;2024-02-23T23:44:17;4.50;99.90
4314;DHT22;2170;48.794;9.182;2024-02-23T23:46:49;4.10;99.90
4314;DHT22;2170;48.794;9.182;2024-02-23T23:49:19;4.40;99.90
4314;DHT22;2170;48.794;9.182;2024-02-23T23:51:59;4.40;99.90
4314;DHT22;2170;48.794;9.182;2024-02-23T23:54:32;4.50;99.90
4314;DHT22;2170;48.794;9.182;2024-02-23T23:57:04;4.60;99.90
4314;DHT22;2170;48.794;9.182;2024-02-23T23:59:41;4.60;99.90
